Nearby METAR Reports - 80 Mile Radius
Meteorological Terminal Air Report (METAR)


KBWI - Balto/Wash Intl Airport, Maryland
Distance from station: S 5mi, 8km
Updated: Wed, 17-Jan-2018 7:54pm EST
Partly Cloudy
Partly Cloudy
 Wind from WNW
Wind: WNW 7 mph , 11 km/h
Temperature: 21°F , -6°C
Wind Chill: 12°F , -11°C
Dew Point: 9°F , -13°C
Humidity: 58%
Barometer: 30.29 inHg , 1025.7 hPa
Clouds: Partly Cloudy
Visibility: 10 miles , 16 km
Cloud details: Few Clouds 10000 ft
Partly Cloudy 16000 ft
Partly Cloudy 25000 ft
2018/01/18 00:54 KBWI 180054Z 30006KT 10SM FEW100 SCT160 SCT250 M06/M13 A3029 RMK AO2 SLP259 T10611133
KDMH - Baltimore/Dwntwn, Maryland
Distance from station: NE 5mi, 9km
Updated: Wed, 17-Jan-2018 7:54pm EST

 
Temperature: 25°F , -4°C
Dew Point: 7°F , -14°C
Humidity: 46%
Barometer: 30.30 inHg , 1026.1 hPa
2018/01/18 00:54 KDMH 180054Z AUTO M04/M14 A3030 RMK AO1 SLP259 T10441139
KFME - Fort Meade/Tipton AAF, Maryland
Distance from station: SSW 11mi, 18km
Updated: Wed, 17-Jan-2018 8:15pm EST
Partly Cloudy
Partly Cloudy
 Wind from NW
Wind: NW 9 mph , 15 km/h
Temperature: 21°F , -6°C
Wind Chill: 11°F , -12°C
Dew Point: 9°F , -13°C
Humidity: 58%
Barometer: 30.32 inHg , 1026.8 hPa
Clouds: Partly Cloudy
Visibility: 10 miles , 16 km
Cloud details: Partly Cloudy 7000 ft
2018/01/18 01:15 KFME 180115Z AUTO 31008KT 10SM SCT070 M06/M13 A3032 RMK AO1
 
KMTN - Balto/Martin State Airport, Maryland
Distance from station: ENE 16mi, 26km
Updated: Wed, 17-Jan-2018 7:45pm EST
Partly Cloudy
Partly Cloudy
 Wind from WNW
Wind: WNW 13 mph , 20 km/h, Gust: 22 mph , 35 km/h
Temperature: 23°F , -5°C
Wind Chill: 11°F , -12°C
Dew Point: 10°F , -12°C
Humidity: 58%
Barometer: 30.31 inHg , 1026.4 hPa
Clouds: Partly Cloudy
Visibility: 10 miles , 16 km
Cloud details: Few Clouds 15000 ft
Partly Cloudy 25000 ft
2018/01/18 00:45 KMTN 180045Z 29011G19KT 10SM FEW150 SCT250 M05/M12 A3031
KCGS - College Park Airport, Maryland
Distance from station: SSW 21mi, 34km
Updated: Wed, 17-Jan-2018 8:17pm EST
Mostly Cloudy
Mostly Cloudy
 Wind from NNW
Wind: NNW 8 mph , 13 km/h
Temperature: 23°F , -5°C
Wind Chill: 14°F , -10°C
Dew Point: 7°F , -14°C
Humidity: 50%
Barometer: 30.30 inHg , 1026.1 hPa
Clouds: Mostly Cloudy
Visibility: 10 miles , 16 km
Cloud details: Mostly Cloudy 7000 ft
2018/01/18 01:17 KCGS 180117Z AUTO 33007KT 10SM BKN070 M05/M14 A3030 RMK AO1 T10551145
KNAK - Annapolis/Naval Academy, Maryland
Distance from station: SE 21mi, 34km
Updated: Wed, 17-Jan-2018 7:54pm EST
Clear
Clear
 Wind from NW
Wind: NW 9 mph , 15 km/h
Temperature: 27°F , -3°C
Wind Chill: 18°F , -8°C
Dew Point: 12°F , -11°C
Humidity: 54%
Barometer: 30.30 inHg , 1026.1 hPa
Clouds: Clear
Visibility: 10 miles , 16 km
2018/01/18 00:54 KNAK 180054Z AUTO 31008KT 10SM CLR M03/M11 A3030 RMK AO2 SLP261 T10281111 $
 
KGAI - Gaithersburg/Montgomery Co Airpark, Maryland
Distance from station: W 26mi, 41km
Updated: Wed, 17-Jan-2018 7:56pm EST
Few Clouds
Few Clouds
 Wind from WNW
Wind: WNW 10 mph , 17 km/h
Temperature: 18°F , -8°C
Wind Chill: 6°F , -14°C
Dew Point: 7°F , -14°C
Humidity: 62%
Barometer: 30.30 inHg , 1026.1 hPa
Clouds: Few Clouds
Visibility: 10 miles , 16 km
Cloud details: Few Clouds 7000 ft
2018/01/18 00:56 KGAI 180056Z AUTO 30009KT 10SM FEW070 M08/M14 A3030 RMK AO2 SLP292 T10781139 FZRANO
KW29 - Stevensville/Bay Bridge Airport, Maryland
Distance from station: SE 26mi, 42km
Updated: Wed, 17-Jan-2018 8:15pm EST
Clear
Clear
 
Temperature: 25°F , -4°C
Dew Point: 10°F , -12°C
Humidity: 54%
Barometer: 30.28 inHg , 1025.4 hPa
Clouds: Clear
Visibility: 10 miles , 16 km
2018/01/18 01:15 KW29 180115Z AUTO 10SM CLR M04/M12 A3028 RMK AO2
KDMW - Carroll Co Regional Airport, Maryland
Distance from station: NNW 30mi, 48km
Updated: Wed, 17-Jan-2018 8:15pm EST
Clear
Clear
 Wind from NW
Wind: NW 8 mph , 13 km/h
Temperature: 18°F , -8°C
Wind Chill: 8°F , -13°C
Dew Point: 9°F , -13°C
Humidity: 68%
Barometer: 30.26 inHg , 1024.7 hPa
Clouds: Clear
Visibility: 10 miles , 16 km
2018/01/18 01:15 KDMW 180115Z AUTO 31007KT 10SM CLR M08/M13 A3026 RMK AO2
 
KADW - Andrews AFB, Maryland
Distance from station: SSW 30mi, 49km
Updated: Wed, 17-Jan-2018 7:56pm EST
Few Clouds
Few Clouds
 Wind from NNW
Wind: NNW 15 mph , 24 km/h, Gust: 21 mph , 33 km/h
Temperature: 23°F , -5°C
Wind Chill: 10°F , -12°C
Dew Point: 7°F , -14°C
Humidity: 50%
Barometer: 30.28 inHg , 1025.4 hPa
Clouds: Few Clouds
Visibility: 10 miles , 16 km
Cloud details: Few Clouds 6500 ft
2018/01/18 00:56 KADW 180056Z AUTO 33013G18KT 10SM FEW065 M05/M14 A3028 RMK AO2 SLP265 T10541140 $
KAPG - Aberdeen/Phillip AAF, Maryland
Distance from station: ENE 32mi, 52km
Updated: Wed, 17-Jan-2018 7:58pm EST
Partly Cloudy
Partly Cloudy
 Wind from NW
Wind: NW 6 mph , 9 km/h
Temperature: 21°F , -6°C
Wind Chill: 13°F , -11°C
Dew Point: 10°F , -12°C
Humidity: 63%
Barometer: 30.29 inHg , 1025.7 hPa
Clouds: Partly Cloudy
Visibility: 7 miles , 11 km
Cloud details: Partly Cloudy 10000 ft
2018/01/18 00:58 KAPG 180058Z 32005KT 7SM SCT100 M06/M12 A3029 RMK AO2A SLPNO $
KDCA - Washington/Natl Airport, Washington D.C.
Distance from station: SW 32mi, 52km
Updated: Wed, 17-Jan-2018 7:52pm EST
Few Clouds
Few Clouds
 Wind from NNW
Wind: NNW 15 mph , 24 km/h, Gust: 21 mph , 33 km/h
Temperature: 25°F , -4°C
Wind Chill: 13°F , -11°C
Dew Point: 9°F , -13°C
Humidity: 50%
Barometer: 30.32 inHg , 1026.8 hPa
Clouds: Few Clouds
Visibility: 10 miles , 16 km
Cloud details: Few Clouds 7000 ft
Few Clouds 25000 ft
2018/01/18 00:52 KDCA 180052Z 34013G18KT 10SM FEW070 FEW250 M04/M13 A3032 RMK AO2 SLP266 T10441133
 
KFDK - Frederick Municipal Airport, Maryland
Distance from station: WNW 38mi, 61km
Updated: Wed, 17-Jan-2018 7:47pm EST
Clear
Clear
 Wind from WNW
Wind: WNW 8 mph , 13 km/h
Temperature: 21°F , -6°C
Wind Chill: 11°F , -12°C
Dew Point: 7°F , -14°C
Humidity: 54%
Barometer: 30.34 inHg , 1027.4 hPa
Clouds: Clear
Visibility: 10 miles , 16 km
2018/01/18 00:47 KFDK 180047Z 30007KT 10SM SKC M06/M14 A3034 RMK LTG DSNT W
KDAA - Fort Belvoir/Davison AAF, Virginia
Distance from station: SW 44mi, 71km
Updated: Wed, 17-Jan-2018 7:56pm EST
Clear
Clear
 Wind from NW
Wind: NW 8 mph , 13 km/h
Temperature: 23°F , -5°C
Wind Chill: 14°F , -10°C
Dew Point: 5°F , -15°C
Humidity: 46%
Barometer: 30.31 inHg , 1026.4 hPa
Clouds: Clear
Visibility: 10 miles , 16 km
2018/01/18 00:56 KDAA 180056Z AUTO 32007KT 10SM CLR M05/M15 A3031 RMK AO2 SLP268 T10481147 $
KESN - Easton/Newnam Field Airport, Maryland
Distance from station: SE 45mi, 73km
Updated: Wed, 17-Jan-2018 7:50pm EST
Mostly Cloudy
Mostly Cloudy
 Wind from NNW
Wind: NNW 10 mph , 17 km/h
Temperature: 25°F , -4°C
Wind Chill: 15°F , -9°C
Dew Point: 10°F , -12°C
Humidity: 54%
Barometer: 30.32 inHg , 1026.8 hPa
Clouds: Mostly Cloudy
Visibility: 10 miles , 16 km
Cloud details: Mostly Cloudy 7500 ft
2018/01/18 00:50 KESN 180050Z 34009KT 10SM BKN075 M04/M12 A3032
 
KIAD - Wash DC/Dulles Intl, Virginia
Distance from station: WSW 45mi, 73km
Updated: Wed, 17-Jan-2018 7:52pm EST
Overcast
Overcast
 Wind from NNW
Wind: NNW 12 mph , 19 km/h
Temperature: 21°F , -6°C
Wind Chill: 9°F , -13°C
Dew Point: 9°F , -13°C
Humidity: 58%
Barometer: 30.32 inHg , 1026.8 hPa
Clouds: Overcast
Visibility: 10 miles , 16 km
Cloud details: Mostly Cloudy 6500 ft
Overcast 14000 ft
2018/01/18 00:52 KIAD 180052Z 33010KT 10SM BKN065 OVC140 M06/M13 A3032 RMK AO2 SLP270 T10561133
KJYO - Leesburg/Godfrey Field, Virginia
Distance from station: WSW 48mi, 77km
Updated: Wed, 17-Jan-2018 8:15pm EST
Clear
Clear
 Wind from NNW
Wind: NNW 12 mph , 19 km/h, Gust: 20 mph , 31 km/h
Temperature: 23°F , -5°C
Wind Chill: 11°F , -12°C
Dew Point: 10°F , -12°C
Humidity: 58%
Barometer: 30.32 inHg , 1026.8 hPa
Clouds: Clear
Visibility: 10 miles , 16 km
2018/01/18 01:15 KJYO 180115Z AUTO 34010G17KT 10SM CLR M05/M12 A3032 RMK AO2
KTHV - York Airport, Pennsylvania
Distance from station: NNW 48mi, 77km
Updated: Wed, 17-Jan-2018 7:53pm EST
Clear
Clear
 Wind from WNW
Wind: WNW 3 mph , 6 km/h
Temperature: 9°F , -13°C
Dew Point: 1°F , -17°C
Humidity: 72%
Barometer: 30.27 inHg , 1025.1 hPa
Clouds: Clear
Visibility: 10 miles , 16 km
2018/01/18 00:53 KTHV 180053Z AUTO 29003KT 10SM CLR M13/M17 A3027 RMK AO2 SLP263 T11331167
 
KRSP - Naval Support Fac Thurmont, Maryland, USA
Distance from station: NW 50mi, 81km
Updated: Wed, 17-Jan-2018 7:54pm EST
Clear
Clear
 Wind from NNW
Wind: NNW 12 mph , 19 km/h, Gust: 23 mph , 37 km/h
Temperature: 10°F , -12°C
Wind Chill: -5°F , -21°C
Dew Point: 5°F , -15°C
Humidity: 79%
Barometer: 30.16 inHg , 1021.3 hPa
Clouds: Clear
Visibility: 10 miles , 16 km
2018/01/18 00:54 KRSP 180054Z AUTO 33010G20KT 300V010 10SM CLR M12/M15 A3016 RMK AO2 SLP256 T11171150 PWINO FZRANO $
KRYT - Fountain Dale Airport, Pennsylvania
Distance from station: NW 52mi, 84km
Updated: Mon, 13-Nov-2017 7:53am EST
NOT Current
Mist, Overcast
Mist, Overcast
 Wind from calm
Wind: Calm
Temperature: 37°F , 3°C
Dew Point: 34°F , 1°C
Humidity: 87%
Barometer: 30.31 inHg , 1026.4 hPa
Summary: Mist
Clouds: Overcast
Visibility: 5 miles , 8 km
Cloud details: Overcast 700 ft
2017/11/13 12:53 KRYT 131253Z AUTO 00000KT 5SM BR OVC007 03/01 A3031 RMK AO2 SLP275 T00280011 TSNO $
KHEF - Manassas Municipal Airport, Virginia
Distance from station: SW 57mi, 91km
Updated: Wed, 17-Jan-2018 7:56pm EST
Overcast
Overcast
 Wind from NNW
Wind: NNW 14 mph , 22 km/h
Temperature: 21°F , -6°C
Wind Chill: 8°F , -13°C
Dew Point: 9°F , -13°C
Humidity: 58%
Barometer: 30.32 inHg , 1026.8 hPa
Clouds: Overcast
Visibility: 10 miles , 16 km
Cloud details: Overcast 7000 ft
2018/01/18 00:56 KHEF 180056Z 34012KT 10SM OVC070 M06/M13 A3032 RMK AO2 SLP280 T10611128 FZRANO PNO $
 
KNYG - Quantico Marine Corps Air Fac, Virginia
Distance from station: SSW 60mi, 96km
Updated: Wed, 17-Jan-2018 6:56pm EST
NOT Current
Mostly Cloudy
Mostly Cloudy
 Wind from N
Wind: N 10 mph , 17 km/h
Temperature: 25°F , -4°C
Wind Chill: 15°F , -9°C
Dew Point: 7°F , -14°C
Humidity: 46%
Barometer: 30.35 inHg , 1027.8 hPa
Clouds: Mostly Cloudy
Visibility: 10 miles , 16 km
Cloud details: Few Clouds 11000 ft
Mostly Cloudy 25000 ft
2018/01/17 23:56 KNYG 172356Z 36009KT 10SM FEW110 BKN250 M04/M14 A3035 RMK A02 SLP277 HRD FRZ WRNG T10391139 11028 21039 55002
KCGE - Cambridge-Dorchester Reg Airport, Maryland
Distance from station: SE 60mi, 97km
Updated: Wed, 17-Jan-2018 8:15pm EST

 Wind from N
Wind: N 15 mph , 24 km/h
Temperature: 25°F , -4°C
Wind Chill: 13°F , -11°C
Dew Point: 10°F , -12°C
Humidity: 54%
Barometer: 30.28 inHg , 1025.4 hPa
Visibility: 10 miles , 16 km
2018/01/18 01:15 KCGE 180115Z AUTO 35013KT 10SM M04/M12 A3028 RMK A01
K2W6 - St Marys Co Reg Airport, Maryland
Distance from station: SSE 64mi, 103km
Updated: Wed, 17-Jan-2018 8:17pm EST
Overcast
Overcast
 Wind from NNW
Wind: NNW 6 mph , 9 km/h
Temperature: 27°F , -3°C
Wind Chill: 20°F , -7°C
Dew Point: 9°F , -13°C
Humidity: 46%
Barometer: 30.30 inHg , 1026.1 hPa
Clouds: Overcast
Visibility: 10 miles , 16 km
Cloud details: Mostly Cloudy 10000 ft
Overcast 12000 ft
2018/01/18 01:17 K2W6 180117Z AUTO 34005KT 10SM BKN100 OVC120 M03/M13 A3030 RMK AO1
 
KHGR - Hagerstown Reg Airport, Maryland
Distance from station: WNW 64mi, 103km
Updated: Wed, 17-Jan-2018 7:53pm EST
Clear
Clear
 Wind from NW
Wind: NW 10 mph , 17 km/h
Temperature: 18°F , -8°C
Wind Chill: 6°F , -14°C
Dew Point: 7°F , -14°C
Humidity: 62%
Barometer: 30.31 inHg , 1026.4 hPa
Clouds: Clear
Visibility: 10 miles , 16 km
2018/01/18 00:53 KHGR 180053Z 31009KT 10SM CLR M08/M14 A3031 RMK AO2 SLP285 T10831144
KLNS - Lancaster Airport, Pennsylvania
Distance from station: NNE 64mi, 104km
Updated: Wed, 17-Jan-2018 7:53pm EST
Clear
Clear
 Wind from WNW
Wind: WNW 7 mph , 11 km/h
Temperature: 12°F , -11°C
Wind Chill: 1°F , -17°C
Dew Point: 7°F , -14°C
Humidity: 79%
Barometer: 30.26 inHg , 1024.7 hPa
Clouds: Clear
Visibility: 10 miles , 16 km
2018/01/18 00:53 KLNS 180053Z 30006KT 10SM CLR M11/M14 A3026 RMK AO2 SLP254 T11061144
KILG - New Castle Airport, Wilmington, Delaware
Distance from station: ENE 66mi, 106km
Updated: Wed, 17-Jan-2018 7:51pm EST
Clear
Clear
 Wind from NW
Wind: NW 13 mph , 20 km/h, Gust: 21 mph , 33 km/h
Temperature: 21°F , -6°C
Wind Chill: 8°F , -13°C
Dew Point: 10°F , -12°C
Humidity: 63%
Barometer: 30.26 inHg , 1024.7 hPa
Clouds: Clear
Visibility: 10 miles , 16 km
2018/01/18 00:51 KILG 180051Z 32011G18KT 10SM CLR M06/M12 A3026 RMK AO2 SLP247 T10561117 $
 
KDOV - Dover Air Force Base, Delaware
Distance from station: E 66mi, 107km
Updated: Wed, 17-Jan-2018 7:56pm EST
Mostly Cloudy
Mostly Cloudy
 Wind from WNW
Wind: WNW 16 mph , 26 km/h
Temperature: 23°F , -5°C
Wind Chill: 10°F , -12°C
Dew Point: 14°F , -10°C
Humidity: 68%
Barometer: 30.25 inHg , 1024.4 hPa
Clouds: Mostly Cloudy
Visibility: 10 miles , 16 km
Cloud details: Mostly Cloudy 10000 ft
2018/01/18 00:56 KDOV 180056Z 30014KT 10SM BKN100 M05/M10 A3025 RMK AO2A SLP247 T10471097 $
KMDT - Harrisburg Intl Airport, Middletown, Pennsylvania
Distance from station: N 67mi, 107km
Updated: Wed, 17-Jan-2018 7:56pm EST
Partly Cloudy
Partly Cloudy
 Wind from NW
Wind: NW 10 mph , 17 km/h
Temperature: 19°F , -7°C
Wind Chill: 8°F , -13°C
Dew Point: 9°F , -13°C
Humidity: 63%
Barometer: 30.28 inHg , 1025.4 hPa
Clouds: Partly Cloudy
Visibility: 10 miles , 16 km
Cloud details: Partly Cloudy 15000 ft
2018/01/18 00:56 KMDT 180056Z 31009KT 10SM SCT150 M07/M13 A3028 RMK AO2 SLP260 T10721133
KMQS - Chester Co Carlson Airport, Coatesville, Pennsylvania
Distance from station: NE 68mi, 109km
Updated: Wed, 17-Jan-2018 8:15pm EST
Clear
Clear
 Wind from NW
Wind: NW 9 mph , 15 km/h
Temperature: 18°F , -8°C
Wind Chill: 7°F , -14°C
Dew Point: 9°F , -13°C
Humidity: 68%
Barometer: 30.23 inHg , 1023.7 hPa
Clouds: Clear
Visibility: 10 miles , 16 km
2018/01/18 01:15 KMQS 180115Z AUTO 31008KT 10SM CLR M08/M13 A3023 RMK AO2
 
KCXY - Capital City Airport, Harrisburg, Pennsylvania
Distance from station: N 68mi, 110km
Updated: Wed, 17-Jan-2018 7:56pm EST
Clear
Clear
 Wind from W
Wind: W 8 mph , 13 km/h
Temperature: 19°F , -7°C
Wind Chill: 9°F , -13°C
Dew Point: 7°F , -14°C
Humidity: 58%
Barometer: 30.29 inHg , 1025.7 hPa
Clouds: Clear
Visibility: 10 miles , 16 km
2018/01/18 00:56 KCXY 180056Z 27007KT 10SM CLR M07/M14 A3029 RMK AO2 SLP265 T10721139
KNHK - Patuxent River NAS, Maryland
Distance from station: SE 69mi, 111km
Updated: Wed, 17-Jan-2018 6:52pm EST
NOT Current
Overcast
Overcast
 Wind from NNW
Wind: NNW 20 mph , 31 km/h
Temperature: 27°F , -3°C
Wind Chill: 13°F , -11°C
Dew Point: 9°F , -13°C
Humidity: 46%
Barometer: 30.29 inHg , 1025.7 hPa
Clouds: Overcast
Visibility: 10 miles , 16 km
Cloud details: Partly Cloudy 6000 ft
Overcast 9000 ft
2018/01/17 23:52 KNHK 172352Z 33017KT 10SM SCT060 OVC090 M03/M13 A3029 RMK SLP257 T10331128 11022 21033 53003
KMRB - Eastern WV Reg Airport/Shepherd Field, Martinsburg, West Virginia
Distance from station: W 70mi, 112km
Updated: Wed, 17-Jan-2018 7:53pm EST
Clear
Clear
 Wind from NW
Wind: NW 13 mph , 20 km/h, Gust: 20 mph , 31 km/h
Temperature: 18°F , -8°C
Wind Chill: 5°F , -15°C
Dew Point: 3°F , -16°C
Humidity: 53%
Barometer: 30.33 inHg , 1027.1 hPa
Clouds: Clear
Visibility: 10 miles , 16 km
2018/01/18 00:53 KMRB 180053Z 31011G17KT 10SM CLR M08/M16 A3033 RMK AO2 SLP279 T10831156
 
KHWY - Warrenton-Fauquier Airport, Warrenton, Virginia
Distance from station: SW 71mi, 114km
Updated: Wed, 17-Jan-2018 8:15pm EST
Overcast
Overcast
 Wind from NNW
Wind: NNW 15 mph , 24 km/h, Gust: 20 mph , 31 km/h
Temperature: 25°F , -4°C
Wind Chill: 13°F , -11°C
Dew Point: 3°F , -16°C
Humidity: 39%
Barometer: 30.30 inHg , 1026.1 hPa
Clouds: Overcast
Visibility: 10 miles , 16 km
Cloud details: Overcast 7000 ft
2018/01/18 01:15 KHWY 180115Z AUTO 34013G17KT 10SM OVC070 M04/M16 A3030 RMK AO2 T10401163
KRMN - Stafford Regional Airport, Virginia
Distance from station: SW 71mi, 114km
Updated: Wed, 17-Jan-2018 8:15pm EST
Overcast
Overcast
 Wind from NNW
Wind: NNW 8 mph , 13 km/h
Temperature: 23°F , -5°C
Wind Chill: 14°F , -10°C
Dew Point: 9°F , -13°C
Humidity: 54%
Barometer: 30.35 inHg , 1027.8 hPa
Clouds: Overcast
Visibility: 10 miles , 16 km
Cloud details: Overcast 6000 ft
2018/01/18 01:15 KRMN 180115Z AUTO 33007KT 10SM OVC060 M05/M13 A3035 RMK AO2 T10481127
KNUI - Webster Naval, St Inigoes, Maryland
Distance from station: S 76mi, 123km
Updated: Wed, 17-Jan-2018 7:53pm EST
Overcast
Overcast
 Wind from varies
Wind: varies 6 mph , 9 km/h
Temperature: 27°F , -3°C
Wind Chill: 20°F , -7°C
Dew Point: 9°F , -13°C
Humidity: 46%
Barometer: 30.27 inHg , 1025.1 hPa
Clouds: Overcast
Visibility: 9 miles , 14 km
Cloud details: Overcast 7500 ft
2018/01/18 00:53 KNUI 180053Z AUTO VRB05KT 9SM OVC075 M03/M13 A3027 RMK AO2 SLP250 T10331128
 
KEZF - Fredericksburg/Shan, Virginia
Distance from station: SSW 78mi, 126km
Updated: Wed, 17-Jan-2018 8:15pm EST
Overcast
Overcast
 Wind from NNW
Wind: NNW 5 mph , 7 km/h
Temperature: 25°F , -4°C
Wind Chill: 19°F , -7°C
Dew Point: 10°F , -12°C
Humidity: 54%
Barometer: 30.31 inHg , 1026.4 hPa
Clouds: Overcast
Visibility: 10 miles , 16 km
Cloud details: Overcast 6000 ft
2018/01/18 01:15 KEZF 180115Z AUTO 33004KT 10SM OVC060 M04/M12 A3031 RMK AO2 T10451123
KOKV - Winchester Regional Airport, Virginia
Distance from station: W 78mi, 126km
Updated: Wed, 17-Jan-2018 8:15pm EST
Clear
Clear
 Wind from NW
Wind: NW 14 mph , 22 km/h, Gust: 25 mph , 41 km/h
Temperature: 16°F , -9°C
Wind Chill: 2°F , -17°C
Dew Point: 5°F , -15°C
Humidity: 62%
Barometer: 30.34 inHg , 1027.4 hPa
Clouds: Clear
Visibility: 10 miles , 16 km
2018/01/18 01:15 KOKV 180115Z AUTO 31012G22KT 10SM CLR M09/M15 A3034 RMK AO2
KCJR - Culpeper Regional Airport, Virginia
Distance from station: SW 79mi, 128km
Updated: Wed, 17-Jan-2018 8:15pm EST
Overcast
Overcast
 Wind from N
Wind: N 12 mph , 19 km/h, Gust: 17 mph , 28 km/h
Temperature: 25°F , -4°C
Wind Chill: 14°F , -10°C
Dew Point: 3°F , -16°C
Humidity: 39%
Barometer: 30.31 inHg , 1026.4 hPa
Clouds: Overcast
Visibility: 10 miles , 16 km
Cloud details: Overcast 6500 ft
2018/01/18 01:15 KCJR 180115Z AUTO 35010G15KT 10SM OVC065 M04/M16 A3031 RMK AO2 T10391156